createdAt,value
2023-03-29T00:02:52.904Z,541.00
2023-03-29T00:06:53.828Z,543.00
2023-03-29T00:10:53.950Z,536.00
2023-03-29T00:14:54.104Z,534.00
2023-03-29T00:18:54.634Z,536.00
2023-03-29T00:22:54.687Z,536.00
2023-03-29T00:26:54.709Z,533.00
2023-03-29T00:30:54.870Z,531.00
2023-03-29T00:34:54.999Z,534.00
2023-03-29T00:38:55.155Z,528.00
2023-03-29T00:42:55.343Z,526.00
2023-03-29T00:46:55.538Z,530.00
2023-03-29T00:50:55.755Z,530.00
2023-03-29T00:54:55.924Z,529.00
2023-03-29T00:58:56.122Z,525.00
2023-03-29T01:02:56.422Z,521.00
2023-03-29T01:10:55.680Z,521.00
2023-03-29T01:18:56.084Z,518.00
2023-03-29T02:58:57.853Z,504.00
2023-03-29T03:06:57.750Z,501.00
2023-03-29T03:14:57.708Z,499.00
2023-03-29T03:22:57.587Z,494.00
2023-03-29T03:34:57.665Z,494.00
2023-03-29T03:42:57.586Z,495.00
2023-03-29T03:50:57.506Z,495.00
2023-03-29T03:58:57.601Z,503.00
2023-03-29T04:06:57.527Z,494.00
2023-03-29T04:14:57.454Z,483.00
2023-03-29T04:26:57.481Z,492.00
2023-03-29T04:34:57.427Z,490.00
2023-03-29T04:42:57.344Z,490.00
2023-03-29T04:50:57.282Z,483.00
2023-03-29T04:58:57.508Z,487.00
2023-03-29T05:06:57.459Z,480.00
2023-03-29T05:10:58.402Z,481.00
2023-03-29T05:18:57.328Z,486.00
2023-03-29T05:26:57.433Z,489.00
2023-03-29T05:38:57.680Z,526.00
2023-03-29T05:46:57.671Z,579.00
2023-03-29T05:50:58.750Z,634.00
2023-03-29T05:54:58.557Z,685.00
2023-03-29T06:03:03.719Z,740.00
2023-03-29T06:10:57.920Z,715.00
2023-03-29T06:18:58.665Z,710.00
2023-03-29T13:03:20.464Z,1358.00
2023-03-29T13:07:21.378Z,1059.00
2023-03-29T13:11:21.241Z,954.00
2023-03-29T13:15:21.822Z,1012.00
2023-03-29T13:19:21.309Z,1011.00
2023-03-29T13:23:21.730Z,1026.00
2023-03-29T17:51:24.505Z,794.00
2023-03-29T17:55:25.674Z,790.00
2023-03-29T17:59:25.842Z,792.00
2023-03-29T18:03:26.335Z,781.00
2023-03-29T18:07:26.284Z,777.00
2023-03-29T18:11:26.334Z,774.00
2023-03-29T18:15:26.331Z,769.00
2023-03-29T18:19:26.463Z,767.00
2023-03-29T18:23:26.601Z,761.00
2023-03-29T18:27:26.766Z,757.00
2023-03-29T18:31:27.332Z,758.00
2023-03-29T18:35:29.845Z,757.00
2023-03-29T18:39:27.360Z,754.00
2023-03-29T18:43:27.344Z,749.00
2023-03-29T18:47:27.416Z,747.00
2023-03-29T18:51:27.305Z,739.00
2023-03-29T18:55:26.890Z,734.00
2023-03-29T18:59:26.885Z,729.00
2023-03-29T19:03:26.921Z,726.00
2023-03-29T19:07:27.331Z,730.00
2023-03-29T19:11:28.932Z,727.00
2023-03-29T19:15:27.402Z,726.00
2023-03-29T19:19:27.329Z,721.00
2023-03-29T19:23:27.358Z,720.00
2023-03-29T19:27:27.341Z,717.00
2023-03-29T19:31:27.389Z,713.00
2023-03-29T19:35:26.945Z,715.00
2023-03-29T19:39:26.886Z,714.00
2023-03-29T19:43:27.339Z,707.00
2023-03-29T19:47:27.408Z,700.00
2023-03-29T19:51:27.440Z,695.00
2023-03-29T19:55:27.628Z,700.00
2023-03-29T19:59:27.824Z,693.00
2023-03-29T20:03:28.054Z,693.00
2023-03-29T20:07:28.203Z,690.00
2023-03-29T20:11:28.390Z,686.00
2023-03-29T20:15:28.583Z,688.00
2023-03-29T20:19:28.908Z,685.00
2023-03-29T20:23:29.389Z,684.00
2023-03-29T20:27:29.160Z,688.00
2023-03-29T20:31:29.418Z,679.00
2023-03-29T20:35:29.592Z,674.00
2023-03-29T20:39:29.741Z,665.00
2023-03-29T20:43:29.925Z,669.00
2023-03-29T20:47:30.172Z,671.00
2023-03-29T20:51:30.433Z,670.00
2023-03-29T20:55:30.521Z,664.00
2023-03-29T20:59:30.722Z,661.00
2023-03-29T21:03:31.019Z,659.00
2023-03-29T21:07:31.146Z,657.00
2023-03-29T21:11:31.332Z,657.00
2023-03-29T21:15:31.561Z,656.00
2023-03-29T21:19:31.720Z,656.00
2023-03-29T21:23:31.938Z,653.00
2023-03-29T21:27:32.395Z,645.00
2023-03-29T21:31:32.437Z,650.00
2023-03-29T22:27:34.468Z,626.00
2023-03-29T22:31:35.315Z,620.00
2023-03-29T22:35:35.545Z,618.00
2023-03-29T22:39:35.700Z,615.00
2023-03-29T22:43:35.940Z,615.00
2023-03-29T22:47:36.170Z,617.00
2023-03-29T22:51:36.332Z,614.00
2023-03-29T22:55:36.501Z,612.00
2023-03-29T22:59:36.751Z,614.00
2023-03-29T23:03:37.000Z,614.00
